Terminal Aerodrome Forecast
Issued by NWS

Home | Current Version | Previous Version | Text Only | Print | Product List | Glossary On
Versions: 1 2 3 4 5 6 7 8 9 10 11 12 13 14 15 16 17 18
000
FTUS43 KILX 011700
TAFBMI
TAF
KBMI 011732Z 0118/0218 VRB03KT 3SM -SN BR BKN006 OVC012
     FM012000 29006KT P6SM OVC012
     FM020300 29010KT P6SM SCT020 BKN200=

USA.gov is the U.S. government's official web portal to all federal, state and local government web resources and services.